createdAt,value
2023-04-13T00:00:46.923Z,10.90
2023-04-13T00:03:18.051Z,10.90
2023-04-13T00:05:46.562Z,10.80
2023-04-13T00:08:14.423Z,10.90
2023-04-13T00:10:41.949Z,10.90
2023-04-13T00:13:11.293Z,10.90
2023-04-13T00:15:42.222Z,10.90
2023-04-13T00:18:11.036Z,10.90
2023-04-13T00:20:39.105Z,10.70
2023-04-13T00:23:06.115Z,10.60
2023-04-13T00:25:33.186Z,11.00
2023-04-13T00:28:03.772Z,11.00
2023-04-13T00:30:49.805Z,10.70
2023-04-13T00:33:17.059Z,10.70
2023-04-13T00:35:44.270Z,10.60
2023-04-13T00:38:11.801Z,10.70
2023-04-13T00:40:39.501Z,10.50
2023-04-13T00:43:06.717Z,10.40
2023-04-13T00:45:39.241Z,10.40
2023-04-13T00:48:09.742Z,10.30
2023-04-13T00:50:37.127Z,10.30
2023-04-13T00:53:07.413Z,10.30
2023-04-13T00:55:39.562Z,10.30
2023-04-13T00:58:06.774Z,10.10
2023-04-13T01:00:33.858Z,10.10
2023-04-13T01:03:02.048Z,10.20
2023-04-13T01:05:35.620Z,10.10
2023-04-13T01:08:18.933Z,10.10
2023-04-13T01:11:07.259Z,10.20
2023-04-13T01:13:46.997Z,10.10
2023-04-13T01:16:25.802Z,10.00
2023-04-13T01:18:54.811Z,9.80
2023-04-13T01:21:26.248Z,9.80
2023-04-13T01:24:03.535Z,9.70
2023-04-13T01:26:45.850Z,10.00
2023-04-13T01:29:14.259Z,9.90
2023-04-13T01:31:42.157Z,9.80
2023-04-13T01:34:09.898Z,9.70
2023-04-13T01:36:40.158Z,9.90
2023-04-13T01:39:07.533Z,9.60
2023-04-13T01:41:34.523Z,9.50
2023-04-13T01:44:01.871Z,9.60
2023-04-13T01:46:31.572Z,9.60
2023-04-13T01:49:01.785Z,9.60
2023-04-13T01:51:32.418Z,9.50
2023-04-13T01:54:11.388Z,9.60
2023-04-13T01:56:42.202Z,9.50
2023-04-13T01:59:10.369Z,9.80
2023-04-13T02:01:40.842Z,9.80
2023-04-13T02:04:08.241Z,9.70
2023-04-13T02:06:37.314Z,9.40
2023-04-13T02:09:07.330Z,9.40
2023-04-13T02:11:35.588Z,9.50
2023-04-13T02:14:02.636Z,9.40
2023-04-13T02:16:29.770Z,9.60
2023-04-13T02:19:00.280Z,9.70
2023-04-13T02:21:27.484Z,9.80
2023-04-13T02:23:54.633Z,9.60
2023-04-13T02:26:21.800Z,9.60
2023-04-13T02:28:51.505Z,9.90
2023-04-13T02:31:20.441Z,9.70
2023-04-13T02:33:47.839Z,9.60
2023-04-13T02:36:17.570Z,9.70
2023-04-13T02:38:45.276Z,9.70
2023-04-13T02:41:12.705Z,9.70
2023-04-13T02:43:39.761Z,9.90
2023-04-13T02:46:06.991Z,9.90
2023-04-13T02:48:34.064Z,10.00
2023-04-13T02:51:01.076Z,10.00
2023-04-13T02:53:28.313Z,10.10
2023-04-13T02:55:55.806Z,10.00
2023-04-13T02:58:23.555Z,10.00
2023-04-13T03:00:50.733Z,9.60
2023-04-13T03:03:19.249Z,9.80
2023-04-13T03:05:46.458Z,10.00
2023-04-13T03:08:14.500Z,10.40
2023-04-13T03:10:41.579Z,10.50
2023-04-13T03:13:08.770Z,10.50
2023-04-13T03:15:35.777Z,10.50
2023-04-13T03:18:04.194Z,10.40
2023-04-13T03:20:31.370Z,10.20
2023-04-13T03:22:59.407Z,10.50
2023-04-13T03:25:26.508Z,10.40
2023-04-13T03:27:53.532Z,10.20
2023-04-13T03:30:20.569Z,10.20
2023-04-13T03:32:47.746Z,10.10
2023-04-13T03:35:14.859Z,10.40
2023-04-13T03:37:43.576Z,10.40
2023-04-13T03:40:11.519Z,10.30
2023-04-13T03:42:39.565Z,10.50
2023-04-13T03:45:07.231Z,10.50
2023-04-13T03:47:34.312Z,10.30
2023-04-13T03:50:01.440Z,10.60
2023-04-13T03:52:28.532Z,10.80
2023-04-13T03:54:55.581Z,10.70
2023-04-13T03:57:25.730Z,10.60
2023-04-13T03:59:52.751Z,10.40
2023-04-13T04:02:20.044Z,10.50
2023-04-13T04:04:47.205Z,10.40
2023-04-13T04:07:14.492Z,10.60
2023-04-13T04:09:42.519Z,10.70
2023-04-13T04:12:09.572Z,10.60
2023-04-13T04:14:37.020Z,11.30
2023-04-13T04:17:04.078Z,10.80
2023-04-13T04:19:31.604Z,10.80
2023-04-13T04:22:04.553Z,10.90
2023-04-13T04:24:31.559Z,10.70
2023-04-13T04:27:00.162Z,10.70
2023-04-13T04:29:36.172Z,11.10
2023-04-13T04:32:05.826Z,10.80
2023-04-13T04:34:33.167Z,10.80
2023-04-13T04:37:03.230Z,10.90
2023-04-13T04:39:33.117Z,11.00
2023-04-13T04:42:03.839Z,10.80
2023-04-13T04:44:32.893Z,10.80
2023-04-13T04:47:00.468Z,10.60
2023-04-13T04:49:28.697Z,10.90
2023-04-13T04:51:56.182Z,11.00
2023-04-13T04:54:24.242Z,10.90
2023-04-13T04:56:52.047Z,10.90
2023-04-13T04:59:22.436Z,11.30
2023-04-13T05:01:50.023Z,11.10
2023-04-13T05:04:17.308Z,11.20
2023-04-13T05:06:44.866Z,11.10
2023-04-13T05:09:12.113Z,11.40
2023-04-13T05:11:39.343Z,11.70
2023-04-13T05:14:06.468Z,11.40
2023-04-13T05:16:34.645Z,11.60
2023-04-13T05:19:02.465Z,11.60
2023-04-13T05:21:29.629Z,11.50
2023-04-13T05:23:57.071Z,11.70
2023-04-13T05:26:25.647Z,12.00
2023-04-13T05:28:52.803Z,11.30
2023-04-13T05:31:20.423Z,12.00
2023-04-13T05:33:48.084Z,11.90
2023-04-13T05:36:15.190Z,11.70
2023-04-13T05:38:43.018Z,12.20
2023-04-13T05:41:10.554Z,12.20
2023-04-13T05:43:37.653Z,12.40
2023-04-13T05:46:05.067Z,12.80
2023-04-13T05:48:34.311Z,12.70
2023-04-13T05:51:01.760Z,12.50
2023-04-13T05:53:28.855Z,12.50
2023-04-13T05:55:56.016Z,12.50
2023-04-13T05:58:23.162Z,12.40
2023-04-13T06:00:50.825Z,12.40
2023-04-13T06:03:20.712Z,12.40
2023-04-13T06:05:48.618Z,12.80
2023-04-13T06:08:17.082Z,13.00
2023-04-13T06:10:47.025Z,13.10
2023-04-13T06:13:14.710Z,13.10
2023-04-13T06:15:41.833Z,13.20
2023-04-13T06:18:08.903Z,13.40
2023-04-13T06:20:36.072Z,13.50
2023-04-13T06:23:03.320Z,13.70
2023-04-13T06:25:30.980Z,13.90
2023-04-13T06:27:58.253Z,14.20
2023-04-13T06:30:25.362Z,14.60
2023-04-13T06:32:52.781Z,14.60
2023-04-13T06:35:20.896Z,15.00
2023-04-13T06:37:48.168Z,15.10
2023-04-13T06:40:16.491Z,15.10
2023-04-13T06:42:43.876Z,14.90
2023-04-13T06:45:12.318Z,14.60
2023-04-13T06:47:43.267Z,15.20
2023-04-13T06:50:14.177Z,15.00
2023-04-13T06:52:46.244Z,15.00
2023-04-13T06:55:14.083Z,15.40
2023-04-13T06:57:41.956Z,15.60
2023-04-13T07:00:21.792Z,15.50
2023-04-13T07:02:57.103Z,15.40
2023-04-13T07:05:24.362Z,15.20
2023-04-13T07:07:51.811Z,15.20
2023-04-13T07:10:18.898Z,14.90
2023-04-13T07:12:46.014Z,15.80
2023-04-13T07:15:13.121Z,16.20
2023-04-13T07:17:40.395Z,16.00
2023-04-13T07:20:08.279Z,16.00
2023-04-13T07:22:35.659Z,16.10
2023-04-13T07:25:02.895Z,16.30
2023-04-13T07:27:30.739Z,16.30
2023-04-13T07:29:57.763Z,16.50
2023-04-13T07:32:30.853Z,16.50
2023-04-13T07:35:01.810Z,16.20
2023-04-13T07:37:30.376Z,16.50
2023-04-13T07:39:57.386Z,16.40
2023-04-13T07:42:25.469Z,17.00
2023-04-13T07:44:58.806Z,16.90
2023-04-13T07:47:25.934Z,16.90
2023-04-13T07:49:53.514Z,16.90
2023-04-13T07:52:21.323Z,17.20
2023-04-13T07:54:48.762Z,16.60
2023-04-13T07:57:19.415Z,16.70
2023-04-13T07:59:46.381Z,16.70
2023-04-13T08:02:13.947Z,16.70
2023-04-13T08:04:41.332Z,16.60
2023-04-13T08:07:08.671Z,16.80
2023-04-13T08:09:36.680Z,17.10
2023-04-13T08:12:04.269Z,17.40
2023-04-13T08:14:31.365Z,17.50
2023-04-13T08:16:58.689Z,17.40
2023-04-13T08:19:25.842Z,17.60
2023-04-13T08:21:52.930Z,17.40
2023-04-13T08:24:22.838Z,17.90
2023-04-13T08:26:49.989Z,17.80
2023-04-13T08:29:16.970Z,17.50
2023-04-13T08:31:44.150Z,16.80
2023-04-13T08:34:11.810Z,17.30
2023-04-13T08:36:39.021Z,17.40
2023-04-13T08:39:09.583Z,17.80
2023-04-13T08:41:42.045Z,18.20
2023-04-13T08:44:09.146Z,18.10
2023-04-13T08:46:37.962Z,18.60
2023-04-13T08:49:07.592Z,19.10
2023-04-13T08:51:34.853Z,18.30
2023-04-13T08:54:02.706Z,19.00
2023-04-13T08:56:42.722Z,18.10
2023-04-13T08:59:15.766Z,18.90
2023-04-13T09:01:46.636Z,19.20
2023-04-13T09:04:17.999Z,18.80
2023-04-13T09:06:50.404Z,18.40
2023-04-13T09:09:21.404Z,19.40
2023-04-13T09:11:52.092Z,20.80
2023-04-13T09:14:22.485Z,20.60
2023-04-13T09:16:50.465Z,19.10
2023-04-13T09:19:28.755Z,18.20
2023-04-13T09:21:56.201Z,19.30
2023-04-13T09:24:23.657Z,20.90
2023-04-13T09:26:51.132Z,20.30
2023-04-13T09:29:20.266Z,19.70
2023-04-13T09:31:48.132Z,19.10
2023-04-13T09:34:28.291Z,20.90
2023-04-13T09:36:57.255Z,20.70
2023-04-13T09:39:29.309Z,20.50
2023-04-13T09:41:56.866Z,21.10
2023-04-13T09:44:34.949Z,21.60
2023-04-13T09:47:04.411Z,20.30
2023-04-13T09:49:42.057Z,20.30
2023-04-13T09:52:25.202Z,19.60
2023-04-13T09:54:53.055Z,20.60
2023-04-13T09:57:31.805Z,21.20
2023-04-13T10:00:07.314Z,20.10
2023-04-13T10:02:36.043Z,20.00
2023-04-13T10:05:04.074Z,19.90
2023-04-13T10:07:37.195Z,20.50
2023-04-13T10:10:04.802Z,22.40
2023-04-13T10:12:35.081Z,19.60
2023-04-13T10:15:28.477Z,19.60
2023-04-13T10:17:58.868Z,18.60
2023-04-13T10:20:28.111Z,18.30
2023-04-13T10:22:55.389Z,18.60
2023-04-13T10:25:32.988Z,19.10
2023-04-13T10:28:01.233Z,19.30
2023-04-13T10:30:28.685Z,19.30
2023-04-13T10:33:07.455Z,19.00
2023-04-13T10:35:37.309Z,18.70
2023-04-13T10:38:05.172Z,19.20
2023-04-13T10:40:48.873Z,19.50
2023-04-13T10:43:26.970Z,19.10
2023-04-13T10:46:13.698Z,20.40
2023-04-13T10:48:53.851Z,19.60
2023-04-13T10:51:21.238Z,20.90
2023-04-13T10:53:48.229Z,21.30
2023-04-13T10:56:19.267Z,19.80
2023-04-13T10:58:55.521Z,21.30
2023-04-13T11:01:23.139Z,22.40
2023-04-13T11:04:03.574Z,20.20
2023-04-13T11:06:38.499Z,19.30
2023-04-13T11:09:07.404Z,20.50
2023-04-13T11:11:37.028Z,21.00
2023-04-13T11:14:04.668Z,22.10
2023-04-13T11:16:31.817Z,21.30
2023-04-13T11:19:05.650Z,20.00
2023-04-13T11:21:35.576Z,20.80
2023-04-13T11:24:03.029Z,21.90
2023-04-13T11:26:38.240Z,22.30
2023-04-13T11:29:05.566Z,21.90
2023-04-13T11:31:40.877Z,22.30
2023-04-13T11:34:13.073Z,20.70
2023-04-13T11:36:41.101Z,20.70
2023-04-13T11:39:10.725Z,20.80
2023-04-13T11:41:41.957Z,22.00
2023-04-13T11:44:12.154Z,22.60
2023-04-13T11:46:39.274Z,21.80
2023-04-13T11:49:06.779Z,21.60
2023-04-13T11:51:33.987Z,21.00
2023-04-13T11:54:01.833Z,20.70
2023-04-13T11:56:29.246Z,21.60
2023-04-13T11:58:56.534Z,22.40
2023-04-13T12:01:26.601Z,22.00
2023-04-13T12:04:12.872Z,22.30
2023-04-13T12:06:45.869Z,21.80
2023-04-13T12:09:16.555Z,22.20
2023-04-13T12:11:50.132Z,22.90
2023-04-13T12:19:26.664Z,22.00
2023-04-13T12:21:57.115Z,21.90
2023-04-13T12:24:38.423Z,23.30
2023-04-13T12:29:40.079Z,23.10
2023-04-13T12:32:15.165Z,20.60
2023-04-13T12:34:43.829Z,20.80
2023-04-13T12:37:11.773Z,21.20
2023-04-13T12:39:39.029Z,22.60
2023-04-13T12:42:06.330Z,24.00
2023-04-13T12:44:34.508Z,21.40
2023-04-13T12:47:02.373Z,20.00
2023-04-13T12:49:30.220Z,19.50
2023-04-13T12:51:57.482Z,20.00
2023-04-13T12:54:24.722Z,20.30
2023-04-13T12:56:52.209Z,20.70
2023-04-13T12:59:22.079Z,20.70
2023-04-13T13:01:49.792Z,19.60
2023-04-13T13:04:17.451Z,19.20
2023-04-13T13:06:44.596Z,19.40
2023-04-13T13:09:11.648Z,19.10
2023-04-13T13:11:38.762Z,19.10
2023-04-13T13:14:06.331Z,19.20
2023-04-13T13:16:33.439Z,19.10
2023-04-13T13:19:00.432Z,19.10
2023-04-13T13:21:27.936Z,19.30
2023-04-13T13:23:55.070Z,19.40
2023-04-13T13:26:24.880Z,19.00
2023-04-13T13:28:53.548Z,19.20
2023-04-13T13:31:21.173Z,18.90
2023-04-13T13:33:48.236Z,19.30
2023-04-13T13:36:15.627Z,19.20
2023-04-13T13:38:43.499Z,19.60
2023-04-13T13:41:10.969Z,19.10
2023-04-13T13:43:38.833Z,18.70
2023-04-13T13:46:06.876Z,18.60
2023-04-13T13:48:34.044Z,18.50
2023-04-13T13:51:01.151Z,18.20
2023-04-13T13:53:28.591Z,17.90
2023-04-13T13:55:56.462Z,17.80
2023-04-13T13:58:23.562Z,18.30
2023-04-13T14:00:50.908Z,18.90
2023-04-13T14:03:36.630Z,19.40
2023-04-13T14:06:22.527Z,19.80
2023-04-13T14:08:49.522Z,20.40
2023-04-13T14:11:16.795Z,19.30
2023-04-13T14:13:44.156Z,18.70
2023-04-13T14:16:29.692Z,18.90
2023-04-13T14:18:56.772Z,19.80
2023-04-13T14:21:42.766Z,20.10
2023-04-13T14:24:09.782Z,20.20
2023-04-13T14:26:38.345Z,20.10
2023-04-13T14:29:05.598Z,20.50
2023-04-13T14:31:32.836Z,19.80
2023-04-13T14:33:59.948Z,19.20
2023-04-13T14:36:27.025Z,19.00
2023-04-13T14:38:55.047Z,19.80
2023-04-13T14:41:22.251Z,20.50
2023-04-13T14:43:49.897Z,20.60
2023-04-13T14:46:17.094Z,19.50
2023-04-13T14:48:44.157Z,19.40
2023-04-13T14:51:17.296Z,18.70
2023-04-13T14:53:45.296Z,18.20
2023-04-13T14:56:12.872Z,18.30
2023-04-13T14:58:39.979Z,18.70
2023-04-13T15:01:27.437Z,18.50
2023-04-13T15:03:55.160Z,18.20
2023-04-13T15:06:22.715Z,17.10
2023-04-13T15:08:49.899Z,17.40
2023-04-13T15:11:17.013Z,18.30
2023-04-13T15:13:45.103Z,17.80
2023-04-13T15:16:12.224Z,17.10
2023-04-13T15:18:58.415Z,16.40
2023-04-13T15:21:27.776Z,16.40
2023-04-13T15:24:13.788Z,16.50
2023-04-13T15:26:59.690Z,16.30
2023-04-13T15:29:27.158Z,16.10
2023-04-13T15:31:54.397Z,15.90
2023-04-13T15:34:40.719Z,15.80
2023-04-13T15:37:08.309Z,15.60
2023-04-13T15:39:35.557Z,15.70
2023-04-13T15:42:02.748Z,15.60
2023-04-13T15:44:29.806Z,15.70
2023-04-13T15:46:56.901Z,15.60
2023-04-13T15:49:23.861Z,15.50
2023-04-13T15:51:50.902Z,15.50
2023-04-13T15:54:17.935Z,15.40
2023-04-13T15:56:45.032Z,15.50
2023-04-13T15:59:12.048Z,15.60
2023-04-13T16:01:49.617Z,15.50
2023-04-13T16:04:17.453Z,15.20
2023-04-13T16:06:44.734Z,15.20
2023-04-13T16:09:11.881Z,15.20
2023-04-13T16:11:38.878Z,14.90
2023-04-13T16:14:09.647Z,14.90
2023-04-13T16:16:44.509Z,14.90
2023-04-13T16:19:12.382Z,14.90
2023-04-13T16:22:18.029Z,14.90
2023-04-13T16:24:45.089Z,15.00
2023-04-13T16:27:12.264Z,14.90
2023-04-13T16:29:41.797Z,14.60
2023-04-13T16:32:27.924Z,14.40
2023-04-13T16:34:55.451Z,14.50
2023-04-13T16:37:22.506Z,14.40
2023-04-13T16:39:49.572Z,14.50
2023-04-13T16:42:19.333Z,14.50
2023-04-13T16:44:46.414Z,14.20
2023-04-13T16:47:13.990Z,14.20
2023-04-13T16:49:41.144Z,14.20
2023-04-13T16:52:26.715Z,14.50
2023-04-13T16:55:15.775Z,14.40
2023-04-13T16:57:43.522Z,14.10
2023-04-13T17:00:11.807Z,14.30
2023-04-13T17:02:58.435Z,14.10
2023-04-13T17:05:44.084Z,14.00
2023-04-13T17:08:11.473Z,14.10
2023-04-13T17:10:57.276Z,13.80
2023-04-13T17:13:24.425Z,14.00
2023-04-13T17:15:51.893Z,13.70
2023-04-13T17:18:19.075Z,13.70
2023-04-13T17:20:55.403Z,13.70
2023-04-13T17:23:23.561Z,13.60
2023-04-13T17:25:53.998Z,13.60
2023-04-13T17:28:23.555Z,13.40
2023-04-13T17:30:50.694Z,13.70
2023-04-13T17:33:17.998Z,13.40
2023-04-13T17:35:45.027Z,13.70
2023-04-13T17:38:30.726Z,13.30
2023-04-13T17:40:57.707Z,13.40
2023-04-13T17:43:24.769Z,13.30
2023-04-13T17:45:51.925Z,13.40
2023-04-13T17:48:18.973Z,13.40
2023-04-13T17:50:46.116Z,13.10
2023-04-13T17:53:16.029Z,13.30
2023-04-13T17:55:43.252Z,13.10
2023-04-13T17:58:29.019Z,13.10
2023-04-13T18:01:15.045Z,13.00
2023-04-13T18:03:42.556Z,13.10
2023-04-13T18:06:09.817Z,13.10
2023-04-13T18:08:36.841Z,12.90
2023-04-13T18:11:03.935Z,13.00
2023-04-13T18:13:49.653Z,12.90
2023-04-13T18:16:36.319Z,12.70
2023-04-13T18:19:22.108Z,12.50
2023-04-13T18:21:49.195Z,12.70
2023-04-13T18:24:34.602Z,12.60
2023-04-13T18:27:20.240Z,12.30
2023-04-13T18:29:47.347Z,12.70
2023-04-13T18:32:17.025Z,12.60
2023-04-13T18:34:44.294Z,12.50
2023-04-13T18:37:11.531Z,12.50
2023-04-13T18:39:39.351Z,12.50
2023-04-13T18:42:07.874Z,12.30
2023-04-13T18:44:34.930Z,12.20
2023-04-13T18:47:02.129Z,12.20
2023-04-13T18:49:29.259Z,12.20
2023-04-13T18:51:56.528Z,12.20
2023-04-13T18:54:23.566Z,12.20
2023-04-13T18:56:50.929Z,12.20
2023-04-13T18:59:18.194Z,12.00
2023-04-13T19:01:46.713Z,11.70
2023-04-13T19:04:14.073Z,11.70
2023-04-13T19:06:41.579Z,11.60
2023-04-13T19:09:08.637Z,11.60
2023-04-13T19:11:50.534Z,11.80
2023-04-13T19:14:17.659Z,11.70
2023-04-13T19:16:48.199Z,11.90
2023-04-13T19:19:15.844Z,11.60
2023-04-13T19:21:42.857Z,11.50
2023-04-13T19:24:13.218Z,11.10
2023-04-13T19:26:41.207Z,11.50
2023-04-13T19:29:30.182Z,11.20
2023-04-13T19:31:57.411Z,11.10
2023-04-13T19:34:24.744Z,10.90
2023-04-13T19:36:51.864Z,11.00
2023-04-13T19:39:19.053Z,11.00
2023-04-13T19:41:46.070Z,10.80
2023-04-13T19:44:16.050Z,10.90
2023-04-13T19:46:43.848Z,11.00
2023-04-13T19:49:10.865Z,11.00
2023-04-13T19:51:38.183Z,10.70
2023-04-13T19:54:06.190Z,10.60
2023-04-13T19:56:34.627Z,10.80
2023-04-13T19:59:04.292Z,10.80
2023-04-13T20:01:33.188Z,10.70
2023-04-13T20:04:02.109Z,10.60
2023-04-13T20:06:29.701Z,11.00
2023-04-13T20:09:14.155Z,10.60
2023-04-13T20:11:42.048Z,10.30
2023-04-13T20:14:11.509Z,10.50
2023-04-13T20:16:38.819Z,10.40
2023-04-13T20:19:06.967Z,10.40
2023-04-13T20:21:34.549Z,10.30
2023-04-13T20:24:03.019Z,10.00
2023-04-13T20:26:31.776Z,10.10
2023-04-13T20:29:04.240Z,10.10
2023-04-13T20:31:32.958Z,10.70
2023-04-13T20:34:00.330Z,10.30
2023-04-13T20:36:27.739Z,10.00
2023-04-13T20:39:00.729Z,9.90
2023-04-13T20:41:30.051Z,10.00
2023-04-13T20:43:58.815Z,9.90
2023-04-13T20:46:34.422Z,9.80
2023-04-13T20:49:04.359Z,9.90
2023-04-13T20:51:33.695Z,9.70
2023-04-13T20:54:03.122Z,9.50
2023-04-13T20:56:30.429Z,9.90
2023-04-13T20:58:58.193Z,9.90
2023-04-13T21:01:25.662Z,9.40
2023-04-13T21:03:53.256Z,9.40
2023-04-13T21:06:22.867Z,9.50
2023-04-13T21:08:50.057Z,9.20
2023-04-13T21:11:17.093Z,9.30
2023-04-13T21:13:44.114Z,9.60
2023-04-13T21:16:12.299Z,9.40
2023-04-13T21:18:41.734Z,9.20
2023-04-13T21:21:08.918Z,9.10
2023-04-13T21:23:38.732Z,9.00
2023-04-13T21:26:06.947Z,9.10
2023-04-13T21:28:34.023Z,9.30
2023-04-13T21:31:00.984Z,9.20
2023-04-13T21:33:27.969Z,9.20
2023-04-13T21:35:55.138Z,9.30
2023-04-13T21:38:22.208Z,9.00
2023-04-13T21:40:49.266Z,8.90
2023-04-13T21:43:17.005Z,8.70
2023-04-13T21:45:44.010Z,8.60
2023-04-13T21:48:11.146Z,8.80
2023-04-13T21:50:38.125Z,8.50
2023-04-13T21:53:05.098Z,8.70
2023-04-13T21:55:32.289Z,8.70
2023-04-13T21:57:59.292Z,8.50
2023-04-13T22:00:26.650Z,8.50
2023-04-13T22:02:55.551Z,8.70
2023-04-13T22:05:22.681Z,8.40
2023-04-13T22:07:49.855Z,8.40
2023-04-13T22:10:16.825Z,8.20
2023-04-13T22:12:46.806Z,8.10
2023-04-13T22:15:14.031Z,7.90
2023-04-13T22:17:41.163Z,7.90
2023-04-13T22:20:09.280Z,7.80
2023-04-13T22:22:36.350Z,7.90
2023-04-13T22:25:03.436Z,8.10
2023-04-13T22:27:30.489Z,8.10
2023-04-13T22:29:57.666Z,7.90
2023-04-13T22:32:27.103Z,8.00
2023-04-13T22:34:54.206Z,8.10
2023-04-13T22:37:21.629Z,7.60
2023-04-13T22:39:48.888Z,7.70
2023-04-13T22:42:18.274Z,7.50
2023-04-13T22:44:45.246Z,7.50
2023-04-13T22:47:12.413Z,7.30
2023-04-13T22:49:39.404Z,7.10
2023-04-13T22:52:06.479Z,7.30
2023-04-13T22:54:33.613Z,7.20
2023-04-13T22:57:03.989Z,7.60
2023-04-13T22:59:32.345Z,7.30
2023-04-13T23:02:01.281Z,7.30
2023-04-13T23:04:28.490Z,7.40
2023-04-13T23:06:56.281Z,7.00
2023-04-13T23:09:23.277Z,7.00
2023-04-13T23:11:50.243Z,6.90
2023-04-13T23:14:20.631Z,6.90
2023-04-13T23:16:47.840Z,7.20
2023-04-13T23:19:17.724Z,7.10
2023-04-13T23:21:45.873Z,6.90
2023-04-13T23:24:13.461Z,7.50
2023-04-13T23:26:40.890Z,7.70
2023-04-13T23:29:07.985Z,6.90
2023-04-13T23:31:35.055Z,6.70
2023-04-13T23:34:02.174Z,6.60
2023-04-13T23:36:29.217Z,6.70
2023-04-13T23:38:56.400Z,6.60
2023-04-13T23:41:23.445Z,6.40
2023-04-13T23:43:51.710Z,6.60
2023-04-13T23:46:18.766Z,6.80
2023-04-13T23:48:45.911Z,6.50
2023-04-13T23:51:12.875Z,6.40
2023-04-13T23:53:39.947Z,6.60
2023-04-13T23:56:07.823Z,6.60
2023-04-13T23:58:34.879Z,6.20
